sensor_id;sensor_type;location;lat;lon;timestamp;P1;durP1;ratioP1;P2;durP2;ratioP2
2874;SDS011;1445;52.600;13.328;2023-05-07T00:01:03;16.02;;;13.18;;
2874;SDS011;1445;52.600;13.328;2023-05-07T00:03:30;16.80;;;12.75;;
2874;SDS011;1445;52.600;13.328;2023-05-07T00:05:56;14.88;;;12.80;;
2874;SDS011;1445;52.600;13.328;2023-05-07T00:08:21;15.90;;;12.98;;
2874;SDS011;1445;52.600;13.328;2023-05-07T00:10:47;14.63;;;12.05;;
2874;SDS011;1445;52.600;13.328;2023-05-07T00:13:12;15.00;;;12.65;;
2874;SDS011;1445;52.600;13.328;2023-05-07T00:15:38;15.27;;;12.60;;
2874;SDS011;1445;52.600;13.328;2023-05-07T00:18:03;14.45;;;12.23;;
2874;SDS011;1445;52.600;13.328;2023-05-07T00:20:29;14.18;;;11.70;;
2874;SDS011;1445;52.600;13.328;2023-05-07T00:22:54;16.50;;;12.02;;
2874;SDS011;1445;52.600;13.328;2023-05-07T00:25:19;14.27;;;11.55;;
2874;SDS011;1445;52.600;13.328;2023-05-07T00:27:45;14.73;;;11.50;;
2874;SDS011;1445;52.600;13.328;2023-05-07T00:30:11;17.55;;;12.65;;
2874;SDS011;1445;52.600;13.328;2023-05-07T00:32:36;15.60;;;11.27;;
2874;SDS011;1445;52.600;13.328;2023-05-07T00:35:03;14.80;;;11.77;;
2874;SDS011;1445;52.600;13.328;2023-05-07T00:37:29;14.07;;;11.45;;
2874;SDS011;1445;52.600;13.328;2023-05-07T00:39:55;15.80;;;12.10;;
2874;SDS011;1445;52.600;13.328;2023-05-07T00:42:20;14.63;;;11.55;;
2874;SDS011;1445;52.600;13.328;2023-05-07T00:44:46;16.30;;;12.20;;
2874;SDS011;1445;52.600;13.328;2023-05-07T00:47:11;15.25;;;11.88;;
2874;SDS011;1445;52.600;13.328;2023-05-07T00:49:38;14.57;;;12.40;;
2874;SDS011;1445;52.600;13.328;2023-05-07T00:52:07;16.05;;;12.40;;
2874;SDS011;1445;52.600;13.328;2023-05-07T00:54:34;14.35;;;11.75;;
2874;SDS011;1445;52.600;13.328;2023-05-07T00:57:00;14.35;;;11.68;;
2874;SDS011;1445;52.600;13.328;2023-05-07T00:59:27;15.95;;;12.27;;
2874;SDS011;1445;52.600;13.328;2023-05-07T01:01:53;13.30;;;11.85;;
2874;SDS011;1445;52.600;13.328;2023-05-07T01:04:18;14.80;;;12.38;;
2874;SDS011;1445;52.600;13.328;2023-05-07T01:06:44;13.07;;;11.40;;
2874;SDS011;1445;52.600;13.328;2023-05-07T01:09:10;14.35;;;11.98;;
2874;SDS011;1445;52.600;13.328;2023-05-07T01:11:37;16.38;;;12.40;;
2874;SDS011;1445;52.600;13.328;2023-05-07T01:14:04;14.77;;;11.55;;
2874;SDS011;1445;52.600;13.328;2023-05-07T01:16:30;13.30;;;11.27;;
2874;SDS011;1445;52.600;13.328;2023-05-07T01:18:56;13.57;;;11.52;;
2874;SDS011;1445;52.600;13.328;2023-05-07T01:21:24;12.77;;;10.95;;
2874;SDS011;1445;52.600;13.328;2023-05-07T01:23:51;15.57;;;11.73;;
2874;SDS011;1445;52.600;13.328;2023-05-07T01:26:17;15.57;;;12.48;;
2874;SDS011;1445;52.600;13.328;2023-05-07T01:28:44;13.38;;;11.65;;
2874;SDS011;1445;52.600;13.328;2023-05-07T01:31:10;15.35;;;12.35;;
2874;SDS011;1445;52.600;13.328;2023-05-07T01:33:38;13.70;;;11.40;;
2874;SDS011;1445;52.600;13.328;2023-05-07T01:36:06;15.23;;;11.82;;
2874;SDS011;1445;52.600;13.328;2023-05-07T01:38:33;14.45;;;11.40;;
2874;SDS011;1445;52.600;13.328;2023-05-07T01:41:00;14.48;;;11.70;;
2874;SDS011;1445;52.600;13.328;2023-05-07T01:43:26;14.18;;;11.60;;
2874;SDS011;1445;52.600;13.328;2023-05-07T01:45:53;13.05;;;11.65;;
2874;SDS011;1445;52.600;13.328;2023-05-07T01:48:20;14.32;;;11.68;;
2874;SDS011;1445;52.600;13.328;2023-05-07T01:50:46;13.90;;;11.38;;
2874;SDS011;1445;52.600;13.328;2023-05-07T01:53:12;15.52;;;11.75;;
2874;SDS011;1445;52.600;13.328;2023-05-07T01:55:38;14.65;;;11.20;;
2874;SDS011;1445;52.600;13.328;2023-05-07T01:58:05;14.25;;;10.57;;
2874;SDS011;1445;52.600;13.328;2023-05-07T02:00:30;11.85;;;10.45;;
2874;SDS011;1445;52.600;13.328;2023-05-07T02:02:56;14.88;;;11.50;;
2874;SDS011;1445;52.600;13.328;2023-05-07T02:05:22;16.63;;;11.57;;
2874;SDS011;1445;52.600;13.328;2023-05-07T02:07:47;14.35;;;11.13;;
2874;SDS011;1445;52.600;13.328;2023-05-07T02:10:13;12.50;;;10.65;;
2874;SDS011;1445;52.600;13.328;2023-05-07T02:12:38;16.23;;;10.85;;
2874;SDS011;1445;52.600;13.328;2023-05-07T02:15:04;14.93;;;11.32;;
2874;SDS011;1445;52.600;13.328;2023-05-07T02:17:30;15.15;;;11.32;;
2874;SDS011;1445;52.600;13.328;2023-05-07T02:19:57;15.27;;;11.23;;
2874;SDS011;1445;52.600;13.328;2023-05-07T02:22:23;15.45;;;11.23;;
2874;SDS011;1445;52.600;13.328;2023-05-07T02:24:49;12.63;;;10.45;;
2874;SDS011;1445;52.600;13.328;2023-05-07T02:27:14;14.77;;;10.90;;
2874;SDS011;1445;52.600;13.328;2023-05-07T02:29:40;13.50;;;11.05;;
2874;SDS011;1445;52.600;13.328;2023-05-07T02:32:05;13.57;;;10.93;;
2874;SDS011;1445;52.600;13.328;2023-05-07T02:34:31;13.50;;;10.75;;
2874;SDS011;1445;52.600;13.328;2023-05-07T02:36:56;12.38;;;10.50;;
2874;SDS011;1445;52.600;13.328;2023-05-07T02:39:22;12.38;;;10.30;;
2874;SDS011;1445;52.600;13.328;2023-05-07T02:41:47;11.30;;;10.02;;
2874;SDS011;1445;52.600;13.328;2023-05-07T02:44:12;14.30;;;10.82;;
2874;SDS011;1445;52.600;13.328;2023-05-07T02:46:38;14.25;;;9.93;;
2874;SDS011;1445;52.600;13.328;2023-05-07T02:49:03;14.00;;;9.70;;
2874;SDS011;1445;52.600;13.328;2023-05-07T02:51:29;13.00;;;10.55;;
2874;SDS011;1445;52.600;13.328;2023-05-07T02:53:55;11.10;;;9.70;;
2874;SDS011;1445;52.600;13.328;2023-05-07T02:56:21;12.40;;;9.88;;
2874;SDS011;1445;52.600;13.328;2023-05-07T02:58:46;13.27;;;10.10;;
2874;SDS011;1445;52.600;13.328;2023-05-07T03:01:12;12.95;;;9.68;;
2874;SDS011;1445;52.600;13.328;2023-05-07T03:03:38;12.27;;;9.38;;
2874;SDS011;1445;52.600;13.328;2023-05-07T03:06:04;13.70;;;9.63;;
2874;SDS011;1445;52.600;13.328;2023-05-07T03:08:30;12.73;;;9.30;;
2874;SDS011;1445;52.600;13.328;2023-05-07T03:10:55;10.52;;;8.82;;
2874;SDS011;1445;52.600;13.328;2023-05-07T03:13:21;11.68;;;9.48;;
2874;SDS011;1445;52.600;13.328;2023-05-07T03:15:47;11.55;;;9.00;;
2874;SDS011;1445;52.600;13.328;2023-05-07T03:18:13;11.80;;;8.90;;
2874;SDS011;1445;52.600;13.328;2023-05-07T03:20:38;10.23;;;8.48;;
2874;SDS011;1445;52.600;13.328;2023-05-07T03:23:03;11.48;;;9.30;;
2874;SDS011;1445;52.600;13.328;2023-05-07T03:25:29;11.75;;;8.60;;
2874;SDS011;1445;52.600;13.328;2023-05-07T03:27:57;10.73;;;8.68;;
2874;SDS011;1445;52.600;13.328;2023-05-07T03:30:23;11.20;;;8.85;;
2874;SDS011;1445;52.600;13.328;2023-05-07T03:32:48;12.00;;;9.18;;
2874;SDS011;1445;52.600;13.328;2023-05-07T03:35:13;10.15;;;8.40;;
2874;SDS011;1445;52.600;13.328;2023-05-07T03:37:39;10.73;;;8.85;;
2874;SDS011;1445;52.600;13.328;2023-05-07T03:40:05;12.23;;;9.02;;
2874;SDS011;1445;52.600;13.328;2023-05-07T03:42:31;10.55;;;8.90;;
2874;SDS011;1445;52.600;13.328;2023-05-07T03:44:56;11.23;;;8.73;;
2874;SDS011;1445;52.600;13.328;2023-05-07T03:47:22;10.98;;;9.02;;
2874;SDS011;1445;52.600;13.328;2023-05-07T03:49:47;9.68;;;8.68;;
2874;SDS011;1445;52.600;13.328;2023-05-07T03:52:14;10.88;;;8.85;;
2874;SDS011;1445;52.600;13.328;2023-05-07T03:54:39;10.18;;;8.40;;
2874;SDS011;1445;52.600;13.328;2023-05-07T03:57:05;9.25;;;8.10;;
2874;SDS011;1445;52.600;13.328;2023-05-07T03:59:30;12.77;;;9.48;;
2874;SDS011;1445;52.600;13.328;2023-05-07T04:01:56;11.63;;;8.40;;
2874;SDS011;1445;52.600;13.328;2023-05-07T04:04:21;11.57;;;8.88;;
2874;SDS011;1445;52.600;13.328;2023-05-07T04:06:46;11.07;;;8.18;;
2874;SDS011;1445;52.600;13.328;2023-05-07T04:09:12;10.50;;;8.60;;
2874;SDS011;1445;52.600;13.328;2023-05-07T04:11:37;10.30;;;8.07;;
2874;SDS011;1445;52.600;13.328;2023-05-07T04:14:05;10.43;;;8.15;;
2874;SDS011;1445;52.600;13.328;2023-05-07T04:16:30;9.48;;;8.48;;
2874;SDS011;1445;52.600;13.328;2023-05-07T04:18:56;10.00;;;7.80;;
2874;SDS011;1445;52.600;13.328;2023-05-07T04:21:21;11.85;;;8.07;;
2874;SDS011;1445;52.600;13.328;2023-05-07T04:23:47;9.85;;;8.60;;
2874;SDS011;1445;52.600;13.328;2023-05-07T04:26:13;9.57;;;7.93;;
2874;SDS011;1445;52.600;13.328;2023-05-07T04:28:39;9.77;;;7.70;;
2874;SDS011;1445;52.600;13.328;2023-05-07T04:31:05;11.35;;;8.52;;
2874;SDS011;1445;52.600;13.328;2023-05-07T04:33:31;8.93;;;7.65;;
2874;SDS011;1445;52.600;13.328;2023-05-07T04:35:58;10.20;;;7.80;;
2874;SDS011;1445;52.600;13.328;2023-05-07T04:38:28;9.57;;;7.93;;
2874;SDS011;1445;52.600;13.328;2023-05-07T04:40:54;10.85;;;8.55;;
2874;SDS011;1445;52.600;13.328;2023-05-07T04:43:19;9.80;;;7.40;;
2874;SDS011;1445;52.600;13.328;2023-05-07T04:45:45;10.55;;;8.02;;
2874;SDS011;1445;52.600;13.328;2023-05-07T04:48:11;10.55;;;8.38;;
2874;SDS011;1445;52.600;13.328;2023-05-07T04:50:36;8.50;;;7.32;;
2874;SDS011;1445;52.600;13.328;2023-05-07T04:53:01;10.18;;;7.50;;
2874;SDS011;1445;52.600;13.328;2023-05-07T04:55:28;10.02;;;7.65;;
2874;SDS011;1445;52.600;13.328;2023-05-07T04:57:53;10.13;;;7.35;;
2874;SDS011;1445;52.600;13.328;2023-05-07T05:00:18;11.27;;;7.70;;
2874;SDS011;1445;52.600;13.328;2023-05-07T05:02:45;8.57;;;6.63;;
2874;SDS011;1445;52.600;13.328;2023-05-07T05:05:10;7.50;;;6.50;;
2874;SDS011;1445;52.600;13.328;2023-05-07T05:07:36;8.38;;;7.20;;
2874;SDS011;1445;52.600;13.328;2023-05-07T05:10:02;8.18;;;6.93;;
2874;SDS011;1445;52.600;13.328;2023-05-07T05:12:28;9.02;;;7.68;;
2874;SDS011;1445;52.600;13.328;2023-05-07T05:14:54;9.55;;;7.57;;
2874;SDS011;1445;52.600;13.328;2023-05-07T05:17:20;9.98;;;7.70;;
2874;SDS011;1445;52.600;13.328;2023-05-07T05:19:45;10.00;;;7.75;;
2874;SDS011;1445;52.600;13.328;2023-05-07T05:22:10;8.07;;;7.28;;
2874;SDS011;1445;52.600;13.328;2023-05-07T05:24:36;7.97;;;7.07;;
2874;SDS011;1445;52.600;13.328;2023-05-07T05:27:01;8.35;;;7.18;;
2874;SDS011;1445;52.600;13.328;2023-05-07T05:29:27;8.70;;;7.30;;
2874;SDS011;1445;52.600;13.328;2023-05-07T05:31:52;8.15;;;7.35;;
2874;SDS011;1445;52.600;13.328;2023-05-07T05:34:18;8.23;;;6.35;;
2874;SDS011;1445;52.600;13.328;2023-05-07T05:36:44;9.63;;;6.72;;
2874;SDS011;1445;52.600;13.328;2023-05-07T05:39:10;9.18;;;6.53;;
2874;SDS011;1445;52.600;13.328;2023-05-07T05:41:35;9.60;;;6.70;;
2874;SDS011;1445;52.600;13.328;2023-05-07T05:44:01;8.77;;;6.55;;
2874;SDS011;1445;52.600;13.328;2023-05-07T05:46:26;8.75;;;6.63;;
2874;SDS011;1445;52.600;13.328;2023-05-07T05:48:51;6.43;;;5.72;;
2874;SDS011;1445;52.600;13.328;2023-05-07T05:51:17;8.30;;;6.68;;
2874;SDS011;1445;52.600;13.328;2023-05-07T05:53:42;8.13;;;6.13;;
2874;SDS011;1445;52.600;13.328;2023-05-07T05:56:08;8.00;;;6.22;;
2874;SDS011;1445;52.600;13.328;2023-05-07T05:58:33;9.80;;;6.93;;
2874;SDS011;1445;52.600;13.328;2023-05-07T06:00:59;6.88;;;6.18;;
2874;SDS011;1445;52.600;13.328;2023-05-07T06:03:25;8.98;;;6.75;;
2874;SDS011;1445;52.600;13.328;2023-05-07T06:05:51;7.65;;;6.40;;
2874;SDS011;1445;52.600;13.328;2023-05-07T06:08:16;9.20;;;6.80;;
2874;SDS011;1445;52.600;13.328;2023-05-07T06:10:42;8.82;;;6.05;;
2874;SDS011;1445;52.600;13.328;2023-05-07T06:13:07;9.57;;;6.65;;
2874;SDS011;1445;52.600;13.328;2023-05-07T06:15:33;9.50;;;6.88;;
2874;SDS011;1445;52.600;13.328;2023-05-07T06:17:58;8.82;;;6.40;;
2874;SDS011;1445;52.600;13.328;2023-05-07T06:20:23;9.05;;;6.63;;
2874;SDS011;1445;52.600;13.328;2023-05-07T06:22:49;7.80;;;6.28;;
2874;SDS011;1445;52.600;13.328;2023-05-07T06:25:14;10.05;;;6.53;;
2874;SDS011;1445;52.600;13.328;2023-05-07T06:27:40;8.30;;;6.70;;
2874;SDS011;1445;52.600;13.328;2023-05-07T06:30:05;7.00;;;5.80;;
2874;SDS011;1445;52.600;13.328;2023-05-07T06:32:32;7.78;;;6.15;;
2874;SDS011;1445;52.600;13.328;2023-05-07T06:34:57;6.93;;;5.60;;
2874;SDS011;1445;52.600;13.328;2023-05-07T06:37:22;6.97;;;6.28;;
2874;SDS011;1445;52.600;13.328;2023-05-07T06:39:48;6.63;;;5.70;;
2874;SDS011;1445;52.600;13.328;2023-05-07T06:42:13;8.43;;;6.45;;
2874;SDS011;1445;52.600;13.328;2023-05-07T06:44:39;8.07;;;6.20;;
2874;SDS011;1445;52.600;13.328;2023-05-07T06:47:04;7.70;;;6.65;;
2874;SDS011;1445;52.600;13.328;2023-05-07T06:49:30;7.85;;;6.63;;
2874;SDS011;1445;52.600;13.328;2023-05-07T06:51:56;7.80;;;6.25;;
2874;SDS011;1445;52.600;13.328;2023-05-07T06:54:22;7.03;;;6.00;;
2874;SDS011;1445;52.600;13.328;2023-05-07T06:56:50;8.52;;;6.47;;
2874;SDS011;1445;52.600;13.328;2023-05-07T06:59:15;7.20;;;6.50;;
2874;SDS011;1445;52.600;13.328;2023-05-07T07:01:41;6.60;;;5.55;;
2874;SDS011;1445;52.600;13.328;2023-05-07T07:04:06;7.68;;;5.78;;
2874;SDS011;1445;52.600;13.328;2023-05-07T07:06:31;8.50;;;6.07;;
2874;SDS011;1445;52.600;13.328;2023-05-07T07:08:57;6.88;;;5.88;;
2874;SDS011;1445;52.600;13.328;2023-05-07T07:11:23;7.20;;;5.53;;
2874;SDS011;1445;52.600;13.328;2023-05-07T07:13:49;8.40;;;5.70;;
2874;SDS011;1445;52.600;13.328;2023-05-07T07:16:15;6.28;;;5.60;;
2874;SDS011;1445;52.600;13.328;2023-05-07T07:18:41;7.05;;;4.93;;
2874;SDS011;1445;52.600;13.328;2023-05-07T07:21:06;6.25;;;5.43;;
2874;SDS011;1445;52.600;13.328;2023-05-07T07:23:32;6.57;;;4.70;;
2874;SDS011;1445;52.600;13.328;2023-05-07T07:25:57;6.20;;;5.30;;
2874;SDS011;1445;52.600;13.328;2023-05-07T07:28:23;5.75;;;4.63;;
2874;SDS011;1445;52.600;13.328;2023-05-07T07:30:48;6.90;;;5.55;;
2874;SDS011;1445;52.600;13.328;2023-05-07T07:33:14;6.68;;;4.90;;
2874;SDS011;1445;52.600;13.328;2023-05-07T07:35:40;6.13;;;4.10;;
2874;SDS011;1445;52.600;13.328;2023-05-07T07:38:05;6.85;;;5.22;;
2874;SDS011;1445;52.600;13.328;2023-05-07T07:40:31;7.18;;;4.80;;
2874;SDS011;1445;52.600;13.328;2023-05-07T07:42:56;6.80;;;5.00;;
2874;SDS011;1445;52.600;13.328;2023-05-07T07:45:22;5.88;;;4.35;;
2874;SDS011;1445;52.600;13.328;2023-05-07T07:47:47;5.25;;;4.13;;
2874;SDS011;1445;52.600;13.328;2023-05-07T07:50:13;5.68;;;4.35;;
2874;SDS011;1445;52.600;13.328;2023-05-07T07:52:38;4.50;;;4.03;;
2874;SDS011;1445;52.600;13.328;2023-05-07T07:55:04;5.35;;;3.95;;
2874;SDS011;1445;52.600;13.328;2023-05-07T07:57:30;4.63;;;3.80;;
2874;SDS011;1445;52.600;13.328;2023-05-07T07:59:55;7.35;;;4.07;;
2874;SDS011;1445;52.600;13.328;2023-05-07T08:02:20;4.32;;;3.42;;
2874;SDS011;1445;52.600;13.328;2023-05-07T08:04:46;6.47;;;4.28;;
2874;SDS011;1445;52.600;13.328;2023-05-07T08:07:12;4.93;;;3.72;;
2874;SDS011;1445;52.600;13.328;2023-05-07T08:09:38;4.35;;;3.88;;
2874;SDS011;1445;52.600;13.328;2023-05-07T08:12:04;4.32;;;3.63;;
2874;SDS011;1445;52.600;13.328;2023-05-07T08:14:33;7.50;;;4.00;;
2874;SDS011;1445;52.600;13.328;2023-05-07T08:16:59;6.20;;;4.00;;
2874;SDS011;1445;52.600;13.328;2023-05-07T08:19:24;8.65;;;3.63;;
2874;SDS011;1445;52.600;13.328;2023-05-07T08:21:49;3.50;;;3.20;;
2874;SDS011;1445;52.600;13.328;2023-05-07T08:24:15;4.07;;;2.88;;
2874;SDS011;1445;52.600;13.328;2023-05-07T08:26:41;3.10;;;2.80;;
2874;SDS011;1445;52.600;13.328;2023-05-07T08:29:07;4.15;;;3.28;;
2874;SDS011;1445;52.600;13.328;2023-05-07T08:31:32;3.40;;;3.10;;
2874;SDS011;1445;52.600;13.328;2023-05-07T08:33:58;5.57;;;4.05;;
2874;SDS011;1445;52.600;13.328;2023-05-07T08:36:24;3.75;;;3.22;;
2874;SDS011;1445;52.600;13.328;2023-05-07T08:38:50;5.40;;;3.15;;
2874;SDS011;1445;52.600;13.328;2023-05-07T08:41:16;5.53;;;3.35;;
2874;SDS011;1445;52.600;13.328;2023-05-07T08:43:42;4.43;;;2.83;;
2874;SDS011;1445;52.600;13.328;2023-05-07T08:46:13;3.40;;;3.10;;
2874;SDS011;1445;52.600;13.328;2023-05-07T08:48:45;3.55;;;2.83;;
2874;SDS011;1445;52.600;13.328;2023-05-07T08:51:13;4.03;;;2.88;;
2874;SDS011;1445;52.600;13.328;2023-05-07T08:53:40;3.65;;;2.67;;
2874;SDS011;1445;52.600;13.328;2023-05-07T08:56:07;4.47;;;2.67;;
2874;SDS011;1445;52.600;13.328;2023-05-07T08:58:33;3.78;;;2.88;;
2874;SDS011;1445;52.600;13.328;2023-05-07T09:00:59;4.18;;;3.08;;
2874;SDS011;1445;52.600;13.328;2023-05-07T09:03:28;4.65;;;3.10;;
2874;SDS011;1445;52.600;13.328;2023-05-07T09:05:55;3.35;;;2.92;;
2874;SDS011;1445;52.600;13.328;2023-05-07T09:08:23;4.22;;;2.80;;
2874;SDS011;1445;52.600;13.328;2023-05-07T09:10:50;3.88;;;2.50;;
2874;SDS011;1445;52.600;13.328;2023-05-07T09:13:15;3.83;;;2.58;;
2874;SDS011;1445;52.600;13.328;2023-05-07T09:15:43;3.55;;;2.83;;
2874;SDS011;1445;52.600;13.328;2023-05-07T09:18:08;3.55;;;2.35;;
2874;SDS011;1445;52.600;13.328;2023-05-07T09:20:33;2.42;;;2.13;;
2874;SDS011;1445;52.600;13.328;2023-05-07T09:23:01;3.42;;;2.70;;
2874;SDS011;1445;52.600;13.328;2023-05-07T09:25:32;2.92;;;2.58;;
2874;SDS011;1445;52.600;13.328;2023-05-07T09:27:59;3.47;;;2.70;;
2874;SDS011;1445;52.600;13.328;2023-05-07T09:30:29;4.43;;;2.78;;
2874;SDS011;1445;52.600;13.328;2023-05-07T09:32:55;3.60;;;2.53;;
2874;SDS011;1445;52.600;13.328;2023-05-07T09:35:22;2.67;;;2.47;;
2874;SDS011;1445;52.600;13.328;2023-05-07T09:37:52;3.38;;;2.67;;
2874;SDS011;1445;52.600;13.328;2023-05-07T09:40:28;2.60;;;2.40;;
2874;SDS011;1445;52.600;13.328;2023-05-07T09:42:55;3.75;;;2.60;;
2874;SDS011;1445;52.600;13.328;2023-05-07T09:45:21;3.65;;;2.47;;
2874;SDS011;1445;52.600;13.328;2023-05-07T09:47:52;3.88;;;2.67;;
2874;SDS011;1445;52.600;13.328;2023-05-07T09:50:19;3.78;;;2.33;;
2874;SDS011;1445;52.600;13.328;2023-05-07T09:52:51;3.13;;;2.30;;
2874;SDS011;1445;52.600;13.328;2023-05-07T09:55:17;2.88;;;2.50;;
2874;SDS011;1445;52.600;13.328;2023-05-07T09:57:43;3.00;;;2.40;;
2874;SDS011;1445;52.600;13.328;2023-05-07T10:00:10;3.13;;;2.40;;
2874;SDS011;1445;52.600;13.328;2023-05-07T10:02:36;4.32;;;2.20;;
2874;SDS011;1445;52.600;13.328;2023-05-07T10:05:11;3.20;;;2.67;;
2874;SDS011;1445;52.600;13.328;2023-05-07T10:07:39;3.70;;;2.38;;
2874;SDS011;1445;52.600;13.328;2023-05-07T10:10:05;2.50;;;2.00;;
2874;SDS011;1445;52.600;13.328;2023-05-07T10:12:31;3.55;;;2.10;;
2874;SDS011;1445;52.600;13.328;2023-05-07T10:15:03;3.05;;;2.45;;
2874;SDS011;1445;52.600;13.328;2023-05-07T10:17:30;3.10;;;2.00;;
2874;SDS011;1445;52.600;13.328;2023-05-07T10:19:56;2.47;;;2.28;;
2874;SDS011;1445;52.600;13.328;2023-05-07T10:22:22;2.38;;;2.10;;
2874;SDS011;1445;52.600;13.328;2023-05-07T10:24:49;4.07;;;2.10;;
2874;SDS011;1445;52.600;13.328;2023-05-07T10:27:17;2.67;;;2.03;;
2874;SDS011;1445;52.600;13.328;2023-05-07T10:29:57;3.10;;;2.30;;
2874;SDS011;1445;52.600;13.328;2023-05-07T10:35:43;2.17;;;1.90;;
2874;SDS011;1445;52.600;13.328;2023-05-07T10:38:04;3.83;;;2.00;;
2874;SDS011;1445;52.600;13.328;2023-05-07T10:40:33;3.80;;;2.00;;
2874;SDS011;1445;52.600;13.328;2023-05-07T10:42:59;2.55;;;2.03;;
2874;SDS011;1445;52.600;13.328;2023-05-07T10:45:26;2.50;;;2.15;;
2874;SDS011;1445;52.600;13.328;2023-05-07T10:48:09;2.10;;;1.90;;
2874;SDS011;1445;52.600;13.328;2023-05-07T10:50:44;2.70;;;1.90;;
2874;SDS011;1445;52.600;13.328;2023-05-07T10:55:41;1.95;;;1.77;;
2874;SDS011;1445;52.600;13.328;2023-05-07T10:58:26;2.72;;;1.75;;
2874;SDS011;1445;52.600;13.328;2023-05-07T11:00:56;2.47;;;1.75;;
2874;SDS011;1445;52.600;13.328;2023-05-07T11:03:24;2.22;;;1.90;;
2874;SDS011;1445;52.600;13.328;2023-05-07T11:06:08;2.22;;;1.80;;
2874;SDS011;1445;52.600;13.328;2023-05-07T11:11:18;2.45;;;1.90;;
2874;SDS011;1445;52.600;13.328;2023-05-07T11:13:47;2.45;;;1.70;;
2874;SDS011;1445;52.600;13.328;2023-05-07T11:16:22;2.00;;;1.50;;
2874;SDS011;1445;52.600;13.328;2023-05-07T11:18:55;2.53;;;1.70;;
2874;SDS011;1445;52.600;13.328;2023-05-07T11:21:37;2.05;;;1.80;;
2874;SDS011;1445;52.600;13.328;2023-05-07T11:24:05;2.13;;;1.80;;
2874;SDS011;1445;52.600;13.328;2023-05-07T11:26:41;2.38;;;1.60;;
2874;SDS011;1445;52.600;13.328;2023-05-07T11:29:20;2.35;;;1.60;;
2874;SDS011;1445;52.600;13.328;2023-05-07T11:31:50;2.97;;;1.63;;
2874;SDS011;1445;52.600;13.328;2023-05-07T11:34:23;2.28;;;1.90;;
2874;SDS011;1445;52.600;13.328;2023-05-07T11:36:50;2.30;;;2.03;;
2874;SDS011;1445;52.600;13.328;2023-05-07T11:39:50;2.03;;;1.80;;
2874;SDS011;1445;52.600;13.328;2023-05-07T11:42:24;1.92;;;1.50;;
2874;SDS011;1445;52.600;13.328;2023-05-07T11:44:51;1.95;;;1.60;;
2874;SDS011;1445;52.600;13.328;2023-05-07T11:47:17;1.77;;;1.60;;
2874;SDS011;1445;52.600;13.328;2023-05-07T11:49:45;2.88;;;1.60;;
2874;SDS011;1445;52.600;13.328;2023-05-07T11:52:13;3.88;;;1.73;;
2874;SDS011;1445;52.600;13.328;2023-05-07T11:54:39;2.97;;;1.60;;
2874;SDS011;1445;52.600;13.328;2023-05-07T11:57:04;2.00;;;1.70;;
2874;SDS011;1445;52.600;13.328;2023-05-07T11:59:37;2.55;;;1.50;;
2874;SDS011;1445;52.600;13.328;2023-05-07T12:02:05;1.73;;;1.33;;
2874;SDS011;1445;52.600;13.328;2023-05-07T12:04:31;3.10;;;1.63;;
2874;SDS011;1445;52.600;13.328;2023-05-07T12:06:56;1.70;;;1.60;;
2874;SDS011;1445;52.600;13.328;2023-05-07T12:09:22;4.10;;;1.70;;
2874;SDS011;1445;52.600;13.328;2023-05-07T12:11:47;2.45;;;1.70;;
2874;SDS011;1445;52.600;13.328;2023-05-07T12:14:13;1.77;;;1.60;;
2874;SDS011;1445;52.600;13.328;2023-05-07T12:16:39;2.65;;;1.85;;
2874;SDS011;1445;52.600;13.328;2023-05-07T12:19:05;2.42;;;1.55;;
2874;SDS011;1445;52.600;13.328;2023-05-07T12:21:33;3.20;;;1.50;;
2874;SDS011;1445;52.600;13.328;2023-05-07T12:24:00;2.63;;;1.75;;
2874;SDS011;1445;52.600;13.328;2023-05-07T12:26:26;3.13;;;1.60;;
2874;SDS011;1445;52.600;13.328;2023-05-07T12:28:51;2.00;;;1.63;;
2874;SDS011;1445;52.600;13.328;2023-05-07T12:31:17;2.47;;;1.50;;
2874;SDS011;1445;52.600;13.328;2023-05-07T12:33:42;2.20;;;1.67;;
2874;SDS011;1445;52.600;13.328;2023-05-07T12:36:08;2.75;;;1.55;;
2874;SDS011;1445;52.600;13.328;2023-05-07T12:38:34;2.13;;;1.50;;
2874;SDS011;1445;52.600;13.328;2023-05-07T12:41:01;2.00;;;1.38;;
2874;SDS011;1445;52.600;13.328;2023-05-07T12:43:27;2.35;;;1.20;;
2874;SDS011;1445;52.600;13.328;2023-05-07T12:45:54;1.98;;;1.40;;
2874;SDS011;1445;52.600;13.328;2023-05-07T12:48:21;1.88;;;1.50;;
2874;SDS011;1445;52.600;13.328;2023-05-07T12:50:51;1.85;;;1.33;;
2874;SDS011;1445;52.600;13.328;2023-05-07T12:53:19;2.15;;;1.77;;
2874;SDS011;1445;52.600;13.328;2023-05-07T12:55:46;1.98;;;1.63;;
2874;SDS011;1445;52.600;13.328;2023-05-07T12:58:20;1.50;;;1.25;;
2874;SDS011;1445;52.600;13.328;2023-05-07T13:00:50;2.72;;;1.30;;
2874;SDS011;1445;52.600;13.328;2023-05-07T13:03:29;2.88;;;1.83;;
2874;SDS011;1445;52.600;13.328;2023-05-07T13:06:02;2.03;;;1.38;;
2874;SDS011;1445;52.600;13.328;2023-05-07T13:08:30;1.63;;;1.30;;
2874;SDS011;1445;52.600;13.328;2023-05-07T13:10:58;2.15;;;1.52;;
2874;SDS011;1445;52.600;13.328;2023-05-07T13:13:25;1.75;;;1.33;;
2874;SDS011;1445;52.600;13.328;2023-05-07T13:15:50;1.42;;;1.10;;
2874;SDS011;1445;52.600;13.328;2023-05-07T13:18:16;2.88;;;1.75;;
2874;SDS011;1445;52.600;13.328;2023-05-07T13:20:42;2.53;;;1.60;;
2874;SDS011;1445;52.600;13.328;2023-05-07T13:23:07;2.00;;;1.40;;
2874;SDS011;1445;52.600;13.328;2023-05-07T13:25:33;1.90;;;1.50;;
2874;SDS011;1445;52.600;13.328;2023-05-07T13:27:58;3.15;;;1.60;;
2874;SDS011;1445;52.600;13.328;2023-05-07T13:30:24;1.70;;;1.45;;
2874;SDS011;1445;52.600;13.328;2023-05-07T13:32:49;3.28;;;1.38;;
2874;SDS011;1445;52.600;13.328;2023-05-07T13:35:15;1.98;;;1.30;;
2874;SDS011;1445;52.600;13.328;2023-05-07T13:37:41;2.10;;;1.50;;
2874;SDS011;1445;52.600;13.328;2023-05-07T13:40:07;1.75;;;1.40;;
2874;SDS011;1445;52.600;13.328;2023-05-07T13:42:33;2.58;;;1.30;;
2874;SDS011;1445;52.600;13.328;2023-05-07T13:44:58;2.25;;;1.88;;
2874;SDS011;1445;52.600;13.328;2023-05-07T13:47:23;2.30;;;1.50;;
2874;SDS011;1445;52.600;13.328;2023-05-07T13:49:49;2.58;;;1.70;;
2874;SDS011;1445;52.600;13.328;2023-05-07T13:52:15;4.00;;;1.60;;
2874;SDS011;1445;52.600;13.328;2023-05-07T13:54:41;3.15;;;1.80;;
2874;SDS011;1445;52.600;13.328;2023-05-07T13:57:06;4.38;;;1.95;;
2874;SDS011;1445;52.600;13.328;2023-05-07T13:59:32;2.67;;;1.65;;
2874;SDS011;1445;52.600;13.328;2023-05-07T14:01:58;1.90;;;1.70;;
2874;SDS011;1445;52.600;13.328;2023-05-07T14:04:23;2.63;;;1.73;;
2874;SDS011;1445;52.600;13.328;2023-05-07T14:06:49;3.22;;;1.48;;
2874;SDS011;1445;52.600;13.328;2023-05-07T14:09:14;2.30;;;1.30;;
2874;SDS011;1445;52.600;13.328;2023-05-07T14:11:40;2.95;;;1.80;;
2874;SDS011;1445;52.600;13.328;2023-05-07T14:14:05;3.92;;;3.05;;
2874;SDS011;1445;52.600;13.328;2023-05-07T14:16:30;1.77;;;1.50;;
2874;SDS011;1445;52.600;13.328;2023-05-07T14:18:56;2.63;;;1.60;;
2874;SDS011;1445;52.600;13.328;2023-05-07T14:21:21;2.90;;;2.05;;
2874;SDS011;1445;52.600;13.328;2023-05-07T14:23:47;3.25;;;2.00;;
2874;SDS011;1445;52.600;13.328;2023-05-07T14:26:13;1.65;;;1.50;;
2874;SDS011;1445;52.600;13.328;2023-05-07T14:28:38;3.65;;;1.67;;
2874;SDS011;1445;52.600;13.328;2023-05-07T14:31:04;2.72;;;2.00;;
2874;SDS011;1445;52.600;13.328;2023-05-07T14:33:31;2.47;;;1.77;;
2874;SDS011;1445;52.600;13.328;2023-05-07T14:35:56;2.42;;;1.70;;
2874;SDS011;1445;52.600;13.328;2023-05-07T14:38:22;4.05;;;1.92;;
2874;SDS011;1445;52.600;13.328;2023-05-07T14:40:47;2.08;;;1.63;;
2874;SDS011;1445;52.600;13.328;2023-05-07T14:43:13;2.85;;;1.38;;
2874;SDS011;1445;52.600;13.328;2023-05-07T14:45:38;2.72;;;1.77;;
2874;SDS011;1445;52.600;13.328;2023-05-07T14:48:04;3.00;;;1.83;;
2874;SDS011;1445;52.600;13.328;2023-05-07T14:50:30;2.55;;;1.70;;
2874;SDS011;1445;52.600;13.328;2023-05-07T14:52:55;2.58;;;2.08;;
2874;SDS011;1445;52.600;13.328;2023-05-07T14:55:20;2.65;;;1.90;;
2874;SDS011;1445;52.600;13.328;2023-05-07T14:57:46;2.20;;;1.58;;
2874;SDS011;1445;52.600;13.328;2023-05-07T15:00:11;2.15;;;1.52;;